sensor_id;sensor_type;location;lat;lon;timestamp;P1;durP1;ratioP1;P2;durP2;ratioP2
7263;SDS011;3673;52.480;13.348;2022-09-06T00:01:37;2.08;;;1.80;;
7263;SDS011;3673;52.480;13.348;2022-09-06T00:04:04;5.38;;;2.15;;
7263;SDS011;3673;52.480;13.348;2022-09-06T00:06:30;6.25;;;1.77;;
7263;SDS011;3673;52.480;13.348;2022-09-06T00:08:57;3.53;;;2.17;;
7263;SDS011;3673;52.480;13.348;2022-09-06T00:11:24;3.65;;;2.10;;
7263;SDS011;3673;52.480;13.348;2022-09-06T00:16:21;2.70;;;1.88;;
7263;SDS011;3673;52.480;13.348;2022-09-06T00:18:52;4.35;;;1.98;;
7263;SDS011;3673;52.480;13.348;2022-09-06T00:21:20;1.90;;;1.27;;
7263;SDS011;3673;52.480;13.348;2022-09-06T00:23:49;4.60;;;1.95;;
7263;SDS011;3673;52.480;13.348;2022-09-06T00:26:17;2.08;;;1.67;;
7263;SDS011;3673;52.480;13.348;2022-09-06T00:28:44;5.63;;;1.50;;
7263;SDS011;3673;52.480;13.348;2022-09-06T00:31:12;6.25;;;2.05;;
7263;SDS011;3673;52.480;13.348;2022-09-06T00:33:41;6.60;;;1.60;;
7263;SDS011;3673;52.480;13.348;2022-09-06T00:36:10;3.97;;;1.75;;
7263;SDS011;3673;52.480;13.348;2022-09-06T00:38:38;5.03;;;1.67;;
7263;SDS011;3673;52.480;13.348;2022-09-06T00:41:06;2.50;;;1.50;;
7263;SDS011;3673;52.480;13.348;2022-09-06T00:43:36;8.13;;;3.20;;
7263;SDS011;3673;52.480;13.348;2022-09-06T00:46:03;2.28;;;1.27;;
7263;SDS011;3673;52.480;13.348;2022-09-06T00:48:31;3.10;;;1.58;;
7263;SDS011;3673;52.480;13.348;2022-09-06T00:50:59;3.35;;;1.67;;
7263;SDS011;3673;52.480;13.348;2022-09-06T00:53:31;1.52;;;1.27;;
7263;SDS011;3673;52.480;13.348;2022-09-06T00:55:58;5.40;;;1.73;;
7263;SDS011;3673;52.480;13.348;2022-09-06T00:58:26;2.90;;;2.10;;
7263;SDS011;3673;52.480;13.348;2022-09-06T01:00:53;3.50;;;1.88;;
7263;SDS011;3673;52.480;13.348;2022-09-06T01:03:21;3.17;;;1.50;;
7263;SDS011;3673;52.480;13.348;2022-09-06T01:05:52;5.47;;;1.63;;
7263;SDS011;3673;52.480;13.348;2022-09-06T01:08:36;2.92;;;1.65;;
7263;SDS011;3673;52.480;13.348;2022-09-06T01:11:22;5.93;;;1.60;;
7263;SDS011;3673;52.480;13.348;2022-09-06T01:14:08;2.03;;;1.45;;
7263;SDS011;3673;52.480;13.348;2022-09-06T01:16:50;3.10;;;1.55;;
7263;SDS011;3673;52.480;13.348;2022-09-06T01:19:50;3.03;;;1.80;;
7263;SDS011;3673;52.480;13.348;2022-09-06T01:22:52;1.80;;;1.13;;
7263;SDS011;3673;52.480;13.348;2022-09-06T01:26:04;2.50;;;1.40;;
7263;SDS011;3673;52.480;13.348;2022-09-06T01:28:56;3.10;;;1.45;;
7263;SDS011;3673;52.480;13.348;2022-09-06T01:31:26;1.95;;;1.00;;
7263;SDS011;3673;52.480;13.348;2022-09-06T01:34:10;4.03;;;1.17;;
7263;SDS011;3673;52.480;13.348;2022-09-06T01:36:47;8.50;;;1.40;;
7263;SDS011;3673;52.480;13.348;2022-09-06T01:39:21;2.85;;;1.30;;
7263;SDS011;3673;52.480;13.348;2022-09-06T01:41:51;4.15;;;1.50;;
7263;SDS011;3673;52.480;13.348;2022-09-06T01:44:20;2.50;;;1.13;;
7263;SDS011;3673;52.480;13.348;2022-09-06T01:46:51;4.75;;;1.60;;
7263;SDS011;3673;52.480;13.348;2022-09-06T01:49:25;4.05;;;1.33;;
7263;SDS011;3673;52.480;13.348;2022-09-06T01:52:07;2.67;;;1.30;;
7263;SDS011;3673;52.480;13.348;2022-09-06T01:57:22;4.07;;;0.97;;
7263;SDS011;3673;52.480;13.348;2022-09-06T02:00:06;2.17;;;1.40;;
7263;SDS011;3673;52.480;13.348;2022-09-06T02:02:40;5.15;;;1.45;;
7263;SDS011;3673;52.480;13.348;2022-09-06T02:05:19;2.58;;;0.98;;
7263;SDS011;3673;52.480;13.348;2022-09-06T02:07:53;5.50;;;1.30;;
7263;SDS011;3673;52.480;13.348;2022-09-06T02:10:26;2.13;;;1.40;;
7263;SDS011;3673;52.480;13.348;2022-09-06T02:12:59;6.72;;;1.52;;
7263;SDS011;3673;52.480;13.348;2022-09-06T02:15:31;3.63;;;1.13;;
7263;SDS011;3673;52.480;13.348;2022-09-06T02:18:02;2.03;;;1.20;;
7263;SDS011;3673;52.480;13.348;2022-09-06T02:20:36;2.08;;;1.05;;
7263;SDS011;3673;52.480;13.348;2022-09-06T02:23:07;2.65;;;1.10;;
7263;SDS011;3673;52.480;13.348;2022-09-06T02:25:37;4.47;;;1.70;;
7263;SDS011;3673;52.480;13.348;2022-09-06T02:28:07;3.95;;;1.38;;
7263;SDS011;3673;52.480;13.348;2022-09-06T02:30:37;3.35;;;1.55;;
7263;SDS011;3673;52.480;13.348;2022-09-06T02:33:11;2.20;;;0.98;;
7263;SDS011;3673;52.480;13.348;2022-09-06T02:35:44;1.85;;;1.00;;
7263;SDS011;3673;52.480;13.348;2022-09-06T02:38:12;2.55;;;1.10;;
7263;SDS011;3673;52.480;13.348;2022-09-06T02:40:40;2.45;;;1.30;;
7263;SDS011;3673;52.480;13.348;2022-09-06T02:43:08;2.55;;;1.40;;
7263;SDS011;3673;52.480;13.348;2022-09-06T02:45:36;1.83;;;1.30;;
7263;SDS011;3673;52.480;13.348;2022-09-06T02:48:03;2.47;;;1.35;;
7263;SDS011;3673;52.480;13.348;2022-09-06T02:50:30;5.32;;;1.33;;
7263;SDS011;3673;52.480;13.348;2022-09-06T02:53:01;3.67;;;1.55;;
7263;SDS011;3673;52.480;13.348;2022-09-06T02:55:30;2.58;;;1.23;;
7263;SDS011;3673;52.480;13.348;2022-09-06T02:57:57;3.55;;;1.05;;
7263;SDS011;3673;52.480;13.348;2022-09-06T03:00:24;3.08;;;1.33;;
7263;SDS011;3673;52.480;13.348;2022-09-06T03:02:54;2.90;;;1.10;;
7263;SDS011;3673;52.480;13.348;2022-09-06T03:05:21;1.58;;;1.17;;
7263;SDS011;3673;52.480;13.348;2022-09-06T03:07:48;3.35;;;1.17;;
7263;SDS011;3673;52.480;13.348;2022-09-06T03:10:15;1.95;;;1.25;;
7263;SDS011;3673;52.480;13.348;2022-09-06T03:12:42;2.65;;;1.20;;
7263;SDS011;3673;52.480;13.348;2022-09-06T03:15:10;3.00;;;1.30;;
7263;SDS011;3673;52.480;13.348;2022-09-06T03:17:38;3.22;;;1.23;;
7263;SDS011;3673;52.480;13.348;2022-09-06T03:20:07;2.80;;;1.80;;
7263;SDS011;3673;52.480;13.348;2022-09-06T03:22:36;3.33;;;1.83;;
7263;SDS011;3673;52.480;13.348;2022-09-06T03:25:04;3.42;;;1.35;;
7263;SDS011;3673;52.480;13.348;2022-09-06T03:27:32;1.95;;;1.27;;
7263;SDS011;3673;52.480;13.348;2022-09-06T03:29:59;2.47;;;1.52;;
7263;SDS011;3673;52.480;13.348;2022-09-06T03:32:26;3.05;;;1.65;;
7263;SDS011;3673;52.480;13.348;2022-09-06T03:34:53;3.55;;;1.80;;
7263;SDS011;3673;52.480;13.348;2022-09-06T03:37:21;2.08;;;1.40;;
7263;SDS011;3673;52.480;13.348;2022-09-06T03:39:48;3.05;;;2.20;;
7263;SDS011;3673;52.480;13.348;2022-09-06T03:42:14;2.65;;;1.48;;
7263;SDS011;3673;52.480;13.348;2022-09-06T03:44:41;3.75;;;1.92;;
7263;SDS011;3673;52.480;13.348;2022-09-06T03:47:08;3.83;;;1.80;;
7263;SDS011;3673;52.480;13.348;2022-09-06T03:49:35;3.25;;;1.73;;
7263;SDS011;3673;52.480;13.348;2022-09-06T03:52:02;5.13;;;1.58;;
7263;SDS011;3673;52.480;13.348;2022-09-06T03:54:30;2.90;;;1.50;;
7263;SDS011;3673;52.480;13.348;2022-09-06T03:56:57;5.13;;;1.40;;
7263;SDS011;3673;52.480;13.348;2022-09-06T03:59:24;2.70;;;1.60;;
7263;SDS011;3673;52.480;13.348;2022-09-06T04:01:51;6.43;;;1.50;;
7263;SDS011;3673;52.480;13.348;2022-09-06T04:04:17;4.32;;;1.83;;
7263;SDS011;3673;52.480;13.348;2022-09-06T04:06:44;1.80;;;1.10;;
7263;SDS011;3673;52.480;13.348;2022-09-06T04:09:11;5.85;;;2.10;;
7263;SDS011;3673;52.480;13.348;2022-09-06T04:11:40;2.60;;;1.50;;
7263;SDS011;3673;52.480;13.348;2022-09-06T04:14:06;5.10;;;1.63;;
7263;SDS011;3673;52.480;13.348;2022-09-06T04:16:33;4.18;;;1.98;;
7263;SDS011;3673;52.480;13.348;2022-09-06T04:19:00;2.30;;;1.38;;
7263;SDS011;3673;52.480;13.348;2022-09-06T04:21:28;2.67;;;1.48;;
7263;SDS011;3673;52.480;13.348;2022-09-06T04:23:55;4.80;;;1.40;;
7263;SDS011;3673;52.480;13.348;2022-09-06T04:26:22;1.70;;;1.30;;
7263;SDS011;3673;52.480;13.348;2022-09-06T04:28:50;4.55;;;1.80;;
7263;SDS011;3673;52.480;13.348;2022-09-06T04:31:17;2.92;;;1.38;;
7263;SDS011;3673;52.480;13.348;2022-09-06T04:33:44;3.95;;;2.00;;
7263;SDS011;3673;52.480;13.348;2022-09-06T04:36:11;3.60;;;1.85;;
7263;SDS011;3673;52.480;13.348;2022-09-06T04:38:39;5.28;;;1.58;;
7263;SDS011;3673;52.480;13.348;2022-09-06T04:41:07;4.35;;;1.60;;
7263;SDS011;3673;52.480;13.348;2022-09-06T04:43:35;3.97;;;1.58;;
7263;SDS011;3673;52.480;13.348;2022-09-06T04:46:04;5.82;;;2.10;;
7263;SDS011;3673;52.480;13.348;2022-09-06T04:48:36;4.03;;;2.00;;
7263;SDS011;3673;52.480;13.348;2022-09-06T04:51:03;3.35;;;1.67;;
7263;SDS011;3673;52.480;13.348;2022-09-06T04:53:30;3.05;;;1.50;;
7263;SDS011;3673;52.480;13.348;2022-09-06T04:55:57;4.90;;;1.90;;
7263;SDS011;3673;52.480;13.348;2022-09-06T04:58:24;3.25;;;1.52;;
7263;SDS011;3673;52.480;13.348;2022-09-06T05:00:51;3.42;;;1.80;;
7263;SDS011;3673;52.480;13.348;2022-09-06T05:03:20;1.60;;;1.30;;
7263;SDS011;3673;52.480;13.348;2022-09-06T05:05:46;2.63;;;1.75;;
7263;SDS011;3673;52.480;13.348;2022-09-06T05:08:13;4.07;;;1.40;;
7263;SDS011;3673;52.480;13.348;2022-09-06T05:10:40;2.97;;;1.63;;
7263;SDS011;3673;52.480;13.348;2022-09-06T05:13:07;3.03;;;1.67;;
7263;SDS011;3673;52.480;13.348;2022-09-06T05:15:33;2.42;;;1.75;;
7263;SDS011;3673;52.480;13.348;2022-09-06T05:18:00;7.10;;;4.28;;
7263;SDS011;3673;52.480;13.348;2022-09-06T05:20:30;2.75;;;1.90;;
7263;SDS011;3673;52.480;13.348;2022-09-06T05:22:57;3.88;;;1.58;;
7263;SDS011;3673;52.480;13.348;2022-09-06T05:25:24;2.05;;;1.30;;
7263;SDS011;3673;52.480;13.348;2022-09-06T05:27:50;3.97;;;1.70;;
7263;SDS011;3673;52.480;13.348;2022-09-06T05:30:17;5.95;;;1.52;;
7263;SDS011;3673;52.480;13.348;2022-09-06T05:32:44;3.08;;;1.45;;
7263;SDS011;3673;52.480;13.348;2022-09-06T05:35:11;6.60;;;1.85;;
7263;SDS011;3673;52.480;13.348;2022-09-06T05:37:39;3.42;;;1.48;;
7263;SDS011;3673;52.480;13.348;2022-09-06T05:40:06;3.15;;;1.42;;
7263;SDS011;3673;52.480;13.348;2022-09-06T05:42:34;5.07;;;1.67;;
7263;SDS011;3673;52.480;13.348;2022-09-06T05:45:01;9.50;;;2.58;;
7263;SDS011;3673;52.480;13.348;2022-09-06T05:47:27;10.38;;;1.80;;
7263;SDS011;3673;52.480;13.348;2022-09-06T05:49:58;4.45;;;2.03;;
7263;SDS011;3673;52.480;13.348;2022-09-06T05:52:25;7.07;;;2.00;;
7263;SDS011;3673;52.480;13.348;2022-09-06T05:54:53;14.75;;;2.03;;
7263;SDS011;3673;52.480;13.348;2022-09-06T05:57:20;7.63;;;4.65;;
7263;SDS011;3673;52.480;13.348;2022-09-06T05:59:47;6.47;;;5.72;;
7263;SDS011;3673;52.480;13.348;2022-09-06T06:02:13;11.80;;;4.85;;
7263;SDS011;3673;52.480;13.348;2022-09-06T06:04:40;3.13;;;2.72;;
7263;SDS011;3673;52.480;13.348;2022-09-06T06:07:07;8.25;;;5.18;;
7263;SDS011;3673;52.480;13.348;2022-09-06T06:09:34;8.10;;;3.60;;
7263;SDS011;3673;52.480;13.348;2022-09-06T06:12:02;7.25;;;2.53;;
7263;SDS011;3673;52.480;13.348;2022-09-06T06:14:29;7.25;;;3.40;;
7263;SDS011;3673;52.480;13.348;2022-09-06T06:16:56;6.60;;;3.42;;
7263;SDS011;3673;52.480;13.348;2022-09-06T06:19:24;9.65;;;3.47;;
7263;SDS011;3673;52.480;13.348;2022-09-06T06:21:50;6.00;;;3.97;;
7263;SDS011;3673;52.480;13.348;2022-09-06T06:24:19;5.82;;;3.00;;
7263;SDS011;3673;52.480;13.348;2022-09-06T06:26:47;6.85;;;2.53;;
7263;SDS011;3673;52.480;13.348;2022-09-06T06:29:15;8.68;;;3.50;;
7263;SDS011;3673;52.480;13.348;2022-09-06T06:31:41;7.72;;;3.58;;
7263;SDS011;3673;52.480;13.348;2022-09-06T06:34:08;4.13;;;2.90;;
7263;SDS011;3673;52.480;13.348;2022-09-06T06:36:35;8.52;;;5.53;;
7263;SDS011;3673;52.480;13.348;2022-09-06T06:39:03;5.80;;;2.63;;
7263;SDS011;3673;52.480;13.348;2022-09-06T06:41:33;5.55;;;1.80;;
7263;SDS011;3673;52.480;13.348;2022-09-06T06:44:00;6.10;;;3.80;;
7263;SDS011;3673;52.480;13.348;2022-09-06T06:46:31;11.18;;;2.40;;
7263;SDS011;3673;52.480;13.348;2022-09-06T06:49:00;6.53;;;4.18;;
7263;SDS011;3673;52.480;13.348;2022-09-06T06:51:27;5.22;;;2.38;;
7263;SDS011;3673;52.480;13.348;2022-09-06T06:53:56;11.35;;;6.20;;
7263;SDS011;3673;52.480;13.348;2022-09-06T06:56:24;6.00;;;3.80;;
7263;SDS011;3673;52.480;13.348;2022-09-06T06:58:54;5.70;;;2.47;;
7263;SDS011;3673;52.480;13.348;2022-09-06T07:01:22;3.72;;;2.60;;
7263;SDS011;3673;52.480;13.348;2022-09-06T07:03:52;4.85;;;3.25;;
7263;SDS011;3673;52.480;13.348;2022-09-06T07:06:20;13.65;;;3.42;;
7263;SDS011;3673;52.480;13.348;2022-09-06T07:08:47;7.85;;;4.03;;
7263;SDS011;3673;52.480;13.348;2022-09-06T07:11:15;6.07;;;2.30;;
7263;SDS011;3673;52.480;13.348;2022-09-06T07:13:43;5.82;;;3.63;;
7263;SDS011;3673;52.480;13.348;2022-09-06T07:16:11;5.53;;;3.33;;
7263;SDS011;3673;52.480;13.348;2022-09-06T07:18:40;7.82;;;2.17;;
7263;SDS011;3673;52.480;13.348;2022-09-06T07:21:11;4.72;;;2.80;;
7263;SDS011;3673;52.480;13.348;2022-09-06T07:23:40;4.60;;;2.92;;
7263;SDS011;3673;52.480;13.348;2022-09-06T07:26:12;11.40;;;5.65;;
7263;SDS011;3673;52.480;13.348;2022-09-06T07:28:39;12.82;;;7.10;;
7263;SDS011;3673;52.480;13.348;2022-09-06T07:31:06;9.02;;;5.43;;
7263;SDS011;3673;52.480;13.348;2022-09-06T07:33:33;7.75;;;4.65;;
7263;SDS011;3673;52.480;13.348;2022-09-06T07:36:01;6.72;;;2.97;;
7263;SDS011;3673;52.480;13.348;2022-09-06T07:38:32;10.13;;;5.85;;
7263;SDS011;3673;52.480;13.348;2022-09-06T07:41:01;5.20;;;3.63;;
7263;SDS011;3673;52.480;13.348;2022-09-06T07:43:30;10.00;;;6.20;;
7263;SDS011;3673;52.480;13.348;2022-09-06T07:45:59;13.27;;;5.60;;
7263;SDS011;3673;52.480;13.348;2022-09-06T07:48:28;10.57;;;5.25;;
7263;SDS011;3673;52.480;13.348;2022-09-06T07:51:01;19.60;;;5.75;;
7263;SDS011;3673;52.480;13.348;2022-09-06T07:53:31;12.65;;;6.57;;
7263;SDS011;3673;52.480;13.348;2022-09-06T07:55:59;9.23;;;4.97;;
7263;SDS011;3673;52.480;13.348;2022-09-06T07:58:27;8.82;;;5.55;;
7263;SDS011;3673;52.480;13.348;2022-09-06T08:03:44;5.47;;;3.60;;
7263;SDS011;3673;52.480;13.348;2022-09-06T08:06:12;8.43;;;5.03;;
7263;SDS011;3673;52.480;13.348;2022-09-06T08:08:41;6.32;;;4.30;;
7263;SDS011;3673;52.480;13.348;2022-09-06T08:11:07;9.75;;;3.45;;
7263;SDS011;3673;52.480;13.348;2022-09-06T08:13:35;5.18;;;3.60;;
7263;SDS011;3673;52.480;13.348;2022-09-06T08:16:03;6.00;;;4.25;;
7263;SDS011;3673;52.480;13.348;2022-09-06T08:18:32;8.68;;;3.95;;
7263;SDS011;3673;52.480;13.348;2022-09-06T08:21:04;7.68;;;3.50;;
7263;SDS011;3673;52.480;13.348;2022-09-06T08:23:33;6.72;;;4.53;;
7263;SDS011;3673;52.480;13.348;2022-09-06T08:26:01;9.35;;;4.68;;
7263;SDS011;3673;52.480;13.348;2022-09-06T08:28:28;5.28;;;3.38;;
7263;SDS011;3673;52.480;13.348;2022-09-06T08:30:55;4.00;;;2.58;;
7263;SDS011;3673;52.480;13.348;2022-09-06T08:33:30;6.78;;;5.28;;
7263;SDS011;3673;52.480;13.348;2022-09-06T08:35:57;12.82;;;3.55;;
7263;SDS011;3673;52.480;13.348;2022-09-06T08:38:24;13.45;;;4.65;;
7263;SDS011;3673;52.480;13.348;2022-09-06T08:40:52;6.00;;;2.85;;
7263;SDS011;3673;52.480;13.348;2022-09-06T08:43:31;5.20;;;3.00;;
7263;SDS011;3673;52.480;13.348;2022-09-06T08:45:58;9.68;;;2.92;;
7263;SDS011;3673;52.480;13.348;2022-09-06T08:48:26;4.47;;;3.60;;
7263;SDS011;3673;52.480;13.348;2022-09-06T08:50:58;3.72;;;3.17;;
7263;SDS011;3673;52.480;13.348;2022-09-06T08:53:49;7.22;;;3.17;;
7263;SDS011;3673;52.480;13.348;2022-09-06T08:56:22;4.38;;;3.13;;
7263;SDS011;3673;52.480;13.348;2022-09-06T08:58:59;8.35;;;4.82;;
7263;SDS011;3673;52.480;13.348;2022-09-06T09:01:31;10.48;;;3.30;;
7263;SDS011;3673;52.480;13.348;2022-09-06T09:04:09;6.80;;;3.67;;
7263;SDS011;3673;52.480;13.348;2022-09-06T09:06:40;7.18;;;3.90;;
7263;SDS011;3673;52.480;13.348;2022-09-06T09:09:11;8.90;;;3.38;;
7263;SDS011;3673;52.480;13.348;2022-09-06T09:11:40;8.27;;;3.83;;
7263;SDS011;3673;52.480;13.348;2022-09-06T09:14:14;5.43;;;3.75;;
7263;SDS011;3673;52.480;13.348;2022-09-06T09:16:47;5.10;;;3.03;;
7263;SDS011;3673;52.480;13.348;2022-09-06T09:19:15;8.85;;;3.60;;
7263;SDS011;3673;52.480;13.348;2022-09-06T09:21:42;7.45;;;4.05;;
7263;SDS011;3673;52.480;13.348;2022-09-06T09:24:09;7.95;;;3.45;;
7263;SDS011;3673;52.480;13.348;2022-09-06T09:26:41;7.53;;;3.50;;
7263;SDS011;3673;52.480;13.348;2022-09-06T09:29:17;6.68;;;3.08;;
7263;SDS011;3673;52.480;13.348;2022-09-06T09:31:45;10.38;;;3.22;;
7263;SDS011;3673;52.480;13.348;2022-09-06T09:34:26;5.57;;;3.33;;
7263;SDS011;3673;52.480;13.348;2022-09-06T09:37:09;7.03;;;3.58;;
7263;SDS011;3673;52.480;13.348;2022-09-06T09:39:38;12.00;;;4.72;;
7263;SDS011;3673;52.480;13.348;2022-09-06T09:42:06;7.15;;;3.60;;
7263;SDS011;3673;52.480;13.348;2022-09-06T09:44:35;8.90;;;2.97;;
7263;SDS011;3673;52.480;13.348;2022-09-06T09:47:09;3.50;;;2.78;;
7263;SDS011;3673;52.480;13.348;2022-09-06T09:49:51;10.77;;;3.72;;
7263;SDS011;3673;52.480;13.348;2022-09-06T09:52:22;4.57;;;3.10;;
7263;SDS011;3673;52.480;13.348;2022-09-06T09:54:51;9.27;;;3.75;;
7263;SDS011;3673;52.480;13.348;2022-09-06T09:57:22;7.72;;;3.78;;
7263;SDS011;3673;52.480;13.348;2022-09-06T09:59:51;7.72;;;3.92;;
7263;SDS011;3673;52.480;13.348;2022-09-06T10:02:22;7.93;;;3.58;;
7263;SDS011;3673;52.480;13.348;2022-09-06T10:04:52;6.72;;;3.40;;
7263;SDS011;3673;52.480;13.348;2022-09-06T10:07:27;9.23;;;3.97;;
7263;SDS011;3673;52.480;13.348;2022-09-06T10:09:57;7.60;;;3.75;;
7263;SDS011;3673;52.480;13.348;2022-09-06T10:12:29;9.38;;;3.85;;
7263;SDS011;3673;52.480;13.348;2022-09-06T10:15:00;6.10;;;3.50;;
7263;SDS011;3673;52.480;13.348;2022-09-06T10:17:28;8.82;;;4.97;;
7263;SDS011;3673;52.480;13.348;2022-09-06T10:19:58;7.18;;;3.10;;
7263;SDS011;3673;52.480;13.348;2022-09-06T10:22:32;5.60;;;3.33;;
7263;SDS011;3673;52.480;13.348;2022-09-06T10:25:12;6.55;;;3.80;;
7263;SDS011;3673;52.480;13.348;2022-09-06T10:28:01;4.70;;;3.33;;
7263;SDS011;3673;52.480;13.348;2022-09-06T10:30:56;8.98;;;4.53;;
7263;SDS011;3673;52.480;13.348;2022-09-06T10:33:36;9.10;;;4.25;;
7263;SDS011;3673;52.480;13.348;2022-09-06T10:36:17;4.35;;;3.95;;
7263;SDS011;3673;52.480;13.348;2022-09-06T10:38:50;9.15;;;3.97;;
7263;SDS011;3673;52.480;13.348;2022-09-06T10:41:35;5.55;;;3.90;;
7263;SDS011;3673;52.480;13.348;2022-09-06T10:44:22;6.47;;;4.00;;
7263;SDS011;3673;52.480;13.348;2022-09-06T10:47:07;7.65;;;4.20;;
7263;SDS011;3673;52.480;13.348;2022-09-06T10:49:37;8.73;;;3.90;;
7263;SDS011;3673;52.480;13.348;2022-09-06T10:52:10;6.32;;;3.65;;
7263;SDS011;3673;52.480;13.348;2022-09-06T10:54:42;8.98;;;3.30;;
7263;SDS011;3673;52.480;13.348;2022-09-06T10:57:13;6.18;;;3.30;;
7263;SDS011;3673;52.480;13.348;2022-09-06T10:59:45;10.98;;;3.72;;
7263;SDS011;3673;52.480;13.348;2022-09-06T11:02:21;6.65;;;3.90;;
7263;SDS011;3673;52.480;13.348;2022-09-06T11:05:01;5.13;;;4.30;;
7263;SDS011;3673;52.480;13.348;2022-09-06T11:07:32;8.57;;;4.13;;
7263;SDS011;3673;52.480;13.348;2022-09-06T11:10:06;5.05;;;3.30;;
7263;SDS011;3673;52.480;13.348;2022-09-06T11:12:44;8.15;;;3.35;;
7263;SDS011;3673;52.480;13.348;2022-09-06T11:15:19;11.75;;;3.33;;
7263;SDS011;3673;52.480;13.348;2022-09-06T11:17:52;3.58;;;3.28;;
7263;SDS011;3673;52.480;13.348;2022-09-06T11:20:27;6.47;;;4.32;;
7263;SDS011;3673;52.480;13.348;2022-09-06T11:23:20;4.97;;;4.10;;
7263;SDS011;3673;52.480;13.348;2022-09-06T11:26:09;6.22;;;3.45;;
7263;SDS011;3673;52.480;13.348;2022-09-06T11:28:58;7.22;;;3.55;;
7263;SDS011;3673;52.480;13.348;2022-09-06T11:31:29;5.88;;;3.42;;
7263;SDS011;3673;52.480;13.348;2022-09-06T11:34:05;7.93;;;3.63;;
7263;SDS011;3673;52.480;13.348;2022-09-06T11:36:35;8.50;;;4.60;;
7263;SDS011;3673;52.480;13.348;2022-09-06T11:39:10;7.10;;;4.10;;
7263;SDS011;3673;52.480;13.348;2022-09-06T11:41:37;4.70;;;3.42;;
7263;SDS011;3673;52.480;13.348;2022-09-06T11:44:07;8.52;;;3.92;;
7263;SDS011;3673;52.480;13.348;2022-09-06T11:49:33;7.32;;;4.53;;
7263;SDS011;3673;52.480;13.348;2022-09-06T11:55:18;9.02;;;4.50;;
7263;SDS011;3673;52.480;13.348;2022-09-06T11:57:51;7.45;;;4.18;;
7263;SDS011;3673;52.480;13.348;2022-09-06T12:00:23;5.07;;;4.13;;
7263;SDS011;3673;52.480;13.348;2022-09-06T12:02:51;5.68;;;4.20;;
7263;SDS011;3673;52.480;13.348;2022-09-06T12:05:21;6.93;;;4.15;;
7263;SDS011;3673;52.480;13.348;2022-09-06T12:10:56;8.98;;;4.90;;
7263;SDS011;3673;52.480;13.348;2022-09-06T12:13:52;6.97;;;4.82;;
7263;SDS011;3673;52.480;13.348;2022-09-06T12:19:55;5.53;;;3.95;;
7263;SDS011;3673;52.480;13.348;2022-09-06T12:28:26;6.93;;;4.75;;
7263;SDS011;3673;52.480;13.348;2022-09-06T12:31:00;5.95;;;4.68;;
7263;SDS011;3673;52.480;13.348;2022-09-06T12:36:14;4.53;;;3.75;;
7263;SDS011;3673;52.480;13.348;2022-09-06T12:38:55;7.40;;;4.13;;
7263;SDS011;3673;52.480;13.348;2022-09-06T12:41:25;9.60;;;4.80;;
7263;SDS011;3673;52.480;13.348;2022-09-06T12:43:54;7.40;;;4.90;;
7263;SDS011;3673;52.480;13.348;2022-09-06T12:46:23;14.02;;;7.00;;
7263;SDS011;3673;52.480;13.348;2022-09-06T12:49:03;8.40;;;5.00;;
7263;SDS011;3673;52.480;13.348;2022-09-06T12:51:33;6.60;;;5.15;;
7263;SDS011;3673;52.480;13.348;2022-09-06T12:54:04;10.30;;;5.20;;
7263;SDS011;3673;52.480;13.348;2022-09-06T12:56:42;8.25;;;4.53;;
7263;SDS011;3673;52.480;13.348;2022-09-06T12:59:09;9.15;;;6.85;;
7263;SDS011;3673;52.480;13.348;2022-09-06T13:01:38;7.22;;;5.57;;
7263;SDS011;3673;52.480;13.348;2022-09-06T13:04:16;5.82;;;4.90;;
7263;SDS011;3673;52.480;13.348;2022-09-06T13:06:58;6.72;;;4.85;;
7263;SDS011;3673;52.480;13.348;2022-09-06T13:09:29;9.25;;;4.35;;
7263;SDS011;3673;52.480;13.348;2022-09-06T13:11:58;10.25;;;4.80;;
7263;SDS011;3673;52.480;13.348;2022-09-06T13:14:31;9.73;;;4.38;;
7263;SDS011;3673;52.480;13.348;2022-09-06T13:16:59;4.95;;;4.35;;
7263;SDS011;3673;52.480;13.348;2022-09-06T13:19:28;5.80;;;4.00;;
7263;SDS011;3673;52.480;13.348;2022-09-06T13:21:58;6.75;;;5.18;;
7263;SDS011;3673;52.480;13.348;2022-09-06T13:24:38;4.78;;;4.22;;
7263;SDS011;3673;52.480;13.348;2022-09-06T13:27:21;7.47;;;4.20;;
7263;SDS011;3673;52.480;13.348;2022-09-06T13:29:53;7.28;;;5.03;;
7263;SDS011;3673;52.480;13.348;2022-09-06T13:32:21;8.30;;;4.60;;
7263;SDS011;3673;52.480;13.348;2022-09-06T13:34:48;6.53;;;4.05;;
7263;SDS011;3673;52.480;13.348;2022-09-06T13:37:20;6.47;;;4.60;;
7263;SDS011;3673;52.480;13.348;2022-09-06T13:39:50;9.40;;;5.63;;
7263;SDS011;3673;52.480;13.348;2022-09-06T13:42:24;10.63;;;5.35;;
7263;SDS011;3673;52.480;13.348;2022-09-06T13:47:21;7.13;;;4.78;;
7263;SDS011;3673;52.480;13.348;2022-09-06T13:49:51;9.55;;;5.13;;
7263;SDS011;3673;52.480;13.348;2022-09-06T13:52:19;9.23;;;5.15;;
7263;SDS011;3673;52.480;13.348;2022-09-06T13:54:46;4.78;;;4.18;;
7263;SDS011;3673;52.480;13.348;2022-09-06T13:57:14;7.93;;;5.07;;
7263;SDS011;3673;52.480;13.348;2022-09-06T13:59:42;10.90;;;5.40;;
7263;SDS011;3673;52.480;13.348;2022-09-06T14:02:10;8.88;;;4.97;;
7263;SDS011;3673;52.480;13.348;2022-09-06T14:04:39;6.75;;;4.65;;
7263;SDS011;3673;52.480;13.348;2022-09-06T14:07:07;6.32;;;4.05;;
7263;SDS011;3673;52.480;13.348;2022-09-06T14:09:33;6.40;;;4.60;;
7263;SDS011;3673;52.480;13.348;2022-09-06T14:12:01;5.13;;;4.35;;
7263;SDS011;3673;52.480;13.348;2022-09-06T14:14:32;5.20;;;4.22;;
7263;SDS011;3673;52.480;13.348;2022-09-06T14:16:59;7.50;;;5.10;;
7263;SDS011;3673;52.480;13.348;2022-09-06T14:19:26;10.00;;;5.65;;
7263;SDS011;3673;52.480;13.348;2022-09-06T14:21:53;5.90;;;4.47;;
7263;SDS011;3673;52.480;13.348;2022-09-06T14:24:19;11.18;;;4.15;;
7263;SDS011;3673;52.480;13.348;2022-09-06T14:26:46;11.82;;;4.00;;
7263;SDS011;3673;52.480;13.348;2022-09-06T14:29:13;9.18;;;5.20;;
7263;SDS011;3673;52.480;13.348;2022-09-06T14:31:42;7.72;;;5.60;;
7263;SDS011;3673;52.480;13.348;2022-09-06T14:34:08;10.35;;;6.45;;
7263;SDS011;3673;52.480;13.348;2022-09-06T14:36:35;7.75;;;4.40;;
7263;SDS011;3673;52.480;13.348;2022-09-06T14:39:02;7.10;;;4.65;;
7263;SDS011;3673;52.480;13.348;2022-09-06T14:41:29;11.25;;;5.55;;
7263;SDS011;3673;52.480;13.348;2022-09-06T14:43:56;10.02;;;4.65;;
7263;SDS011;3673;52.480;13.348;2022-09-06T14:46:24;6.90;;;4.40;;
7263;SDS011;3673;52.480;13.348;2022-09-06T14:48:58;4.65;;;4.13;;
7263;SDS011;3673;52.480;13.348;2022-09-06T14:51:27;8.15;;;4.47;;
7263;SDS011;3673;52.480;13.348;2022-09-06T14:53:55;4.78;;;4.30;;
7263;SDS011;3673;52.480;13.348;2022-09-06T14:56:24;6.95;;;5.10;;
7263;SDS011;3673;52.480;13.348;2022-09-06T14:58:51;6.43;;;5.10;;
7263;SDS011;3673;52.480;13.348;2022-09-06T15:01:21;10.52;;;5.35;;
7263;SDS011;3673;52.480;13.348;2022-09-06T15:03:50;8.55;;;6.30;;
7263;SDS011;3673;52.480;13.348;2022-09-06T15:06:22;9.57;;;4.63;;
7263;SDS011;3673;52.480;13.348;2022-09-06T15:08:50;6.28;;;5.00;;
7263;SDS011;3673;52.480;13.348;2022-09-06T15:11:25;6.25;;;5.00;;
7263;SDS011;3673;52.480;13.348;2022-09-06T15:13:55;6.93;;;4.63;;
7263;SDS011;3673;52.480;13.348;2022-09-06T15:16:22;5.38;;;4.72;;
7263;SDS011;3673;52.480;13.348;2022-09-06T15:18:49;8.05;;;5.43;;
7263;SDS011;3673;52.480;13.348;2022-09-06T15:21:16;11.73;;;5.88;;
7263;SDS011;3673;52.480;13.348;2022-09-06T15:23:44;8.82;;;6.13;;
7263;SDS011;3673;52.480;13.348;2022-09-06T15:26:12;6.55;;;4.93;;
7263;SDS011;3673;52.480;13.348;2022-09-06T15:28:41;8.48;;;4.47;;
7263;SDS011;3673;52.480;13.348;2022-09-06T15:31:08;10.35;;;6.15;;
7263;SDS011;3673;52.480;13.348;2022-09-06T15:33:37;6.30;;;4.63;;
7263;SDS011;3673;52.480;13.348;2022-09-06T15:36:06;9.30;;;6.97;;
7263;SDS011;3673;52.480;13.348;2022-09-06T15:38:35;9.98;;;4.85;;
7263;SDS011;3673;52.480;13.348;2022-09-06T15:41:08;6.97;;;5.18;;
7263;SDS011;3673;52.480;13.348;2022-09-06T15:43:38;8.05;;;4.97;;
7263;SDS011;3673;52.480;13.348;2022-09-06T15:46:11;6.15;;;5.13;;
7263;SDS011;3673;52.480;13.348;2022-09-06T15:48:39;8.63;;;5.85;;
7263;SDS011;3673;52.480;13.348;2022-09-06T15:51:08;8.73;;;6.47;;
7263;SDS011;3673;52.480;13.348;2022-09-06T15:53:39;6.63;;;4.72;;